Time;durP1;ratioP1;P1;durP2;ratioP2;P2;SDS_P1;SDS_P2;PMS_P1;PMS_P2;Temp;Humidity;BMP_temperature;BMP_pressure;BME280_temperature;BME280_humidity;BME280_pressure;Samples;Min_cycle;Max_cycle;Signal;HPM_P1;HPM_P2
2021/07/21 00:01:44;;;;;;;;;14.60;14.60;;;;;27.01;63.57;100282.16;5091425;28;8816;-79
2021/07/21 00:04:40;;;;;;;;;13.80;13.80;;;;;27.00;63.26;100270.00;5085658;28;9497;-82
2021/07/21 00:07:35;;;;;;;;;16.80;16.60;;;;;26.76;64.05;100275.22;5091742;28;8871;-80
2021/07/21 00:10:32;;;;;;;;;12.60;12.60;;;;;26.93;62.76;100278.72;5078208;28;8828;-82
2021/07/21 00:13:28;;;;;;;;;11.80;11.80;;;;;26.82;62.89;100267.72;5095706;28;8867;-79
2021/07/21 00:16:34;;;;;;;;;10.60;10.60;;;;;27.07;62.72;100280.38;5095989;28;9564;-79
2021/07/21 00:22:45;;;;;;;;;9.60;9.60;;;;;26.94;62.74;100299.38;5106572;28;8825;-80
2021/07/21 00:25:41;;;;;;;;;12.80;12.20;;;;;26.95;62.31;100298.13;5101684;28;8822;-83
2021/07/21 00:28:39;;;;;;;;;10.20;10.20;;;;;26.98;63.09;100294.38;5115714;28;8818;-81
2021/07/21 00:31:34;;;;;;;;;12.40;12.40;;;;;27.06;62.46;100313.59;5114366;28;8821;-81
2021/07/21 00:34:31;;;;;;;;;12.20;12.20;;;;;27.25;62.00;100311.78;5108188;28;8841;-81
2021/07/21 00:37:27;;;;;;;;;11.20;11.20;;;;;27.15;62.59;100305.22;5093556;28;8833;-80
2021/07/21 00:40:23;;;;;;;;;8.20;8.20;;;;;27.15;62.67;100301.59;5081932;28;8859;-81
2021/07/21 00:43:19;;;;;;;;;9.00;9.00;;;;;27.22;62.51;100272.97;5095464;28;8885;-81
2021/07/21 00:46:15;;;;;;;;;12.80;12.80;;;;;26.77;64.26;100259.78;5082076;28;8823;-78
2021/07/21 00:49:11;;;;;;;;;10.20;10.20;;;;;26.72;64.09;100242.53;5082039;28;8835;-79
2021/07/21 00:52:08;;;;;;;;;6.00;6.00;;;;;26.87;62.89;100241.63;5100791;28;8849;-80
2021/07/21 00:55:07;;;;;;;;;7.00;7.00;;;;;26.72;63.57;100239.69;5101422;28;8887;-78
2021/07/21 00:58:03;;;;;;;;;8.40;8.40;;;;;26.54;63.37;100237.41;5114631;28;8810;-78
2021/07/21 01:01:00;;;;;;;;;7.00;7.00;;;;;26.66;63.29;100236.59;5101297;28;8829;-79
2021/07/21 01:03:56;;;;;;;;;7.60;7.60;;;;;26.52;62.81;100220.03;5111513;28;8844;-78
2021/07/21 01:06:52;;;;;;;;;7.20;7.20;;;;;26.47;62.42;100212.91;5101007;28;8833;-79
2021/07/21 01:09:48;;;;;;;;;6.40;6.40;;;;;26.80;62.56;100196.44;5114503;28;8821;-81
2021/07/21 01:13:10;;;;;;;;;8.40;8.40;;;;;26.95;61.51;100191.13;5114379;28;8960;-78
2021/07/21 01:16:15;;;;;;;;;6.40;6.40;;;;;26.96;60.46;100189.06;5114993;28;8822;-81
2021/07/21 01:19:22;;;;;;;;;8.80;8.80;;;;;27.00;59.90;100193.38;5101788;28;9595;-79
2021/07/21 01:22:24;;;;;;;;;8.40;8.40;;;;;26.98;61.06;100201.53;5094327;28;8827;-79
2021/07/21 01:25:55;;;;;;;;;7.40;6.60;;;;;26.91;61.22;100189.63;5094523;28;8851;-79
2021/07/21 01:28:54;;;;;;;;;11.00;10.20;;;;;26.89;60.16;100170.22;5080071;28;8847;-78
2021/07/21 01:31:52;;;;;;;;;8.60;8.60;;;;;26.96;59.60;100163.53;5094787;28;8823;-79
2021/07/21 01:34:51;;;;;;;;;8.80;8.80;;;;;27.08;60.12;100157.09;5080408;28;8914;-79
2021/07/21 01:37:54;;;;;;;;;8.60;8.60;;;;;27.04;60.53;100150.72;5087863;28;8852;-80
2021/07/21 01:40:59;;;;;;;;;8.40;8.40;;;;;27.00;59.10;100156.50;5093535;28;8960;-79
2021/07/21 01:43:59;;;;;;;;;13.80;13.80;;;;;26.97;59.77;100148.09;5093029;28;8832;-80
2021/07/21 01:47:02;;;;;;;;;14.20;14.20;;;;;26.89;60.13;100133.34;5092752;28;9643;-78
2021/07/21 01:49:58;;;;;;;;;11.00;11.00;;;;;26.98;59.88;100129.81;5092489;28;8871;-79
2021/07/21 01:52:55;;;;;;;;;15.00;14.20;;;;;26.96;59.70;100132.31;5093519;28;8824;-79
2021/07/21 01:55:52;;;;;;;;;15.80;15.20;;;;;26.94;60.67;100118.59;5074963;28;9569;-79
2021/07/21 01:58:51;;;;;;;;;11.60;11.60;;;;;26.80;59.77;100117.03;5092508;28;8852;-79
2021/07/21 02:01:47;;;;;;;;;11.60;11.60;;;;;26.69;60.08;100104.47;5093327;28;8978;-78
2021/07/21 02:04:44;;;;;;;;;9.80;9.80;;;;;26.86;59.58;100111.59;5097636;28;8822;-81
2021/07/21 02:07:43;;;;;;;;;14.20;14.20;;;;;26.71;59.76;100113.31;5101270;28;8841;-79
2021/07/21 02:10:39;;;;;;;;;15.80;15.80;;;;;26.88;59.68;100115.53;5113298;28;8821;-81
2021/07/21 02:13:36;;;;;;;;;13.20;13.20;;;;;27.11;59.03;100119.25;5113863;28;8837;-79
2021/07/21 02:16:35;;;;;;;;;17.20;17.20;;;;;27.15;59.49;100125.63;5101281;28;8806;-83
2021/07/21 02:19:32;;;;;;;;;16.80;16.80;;;;;27.06;60.27;100112.13;5113219;28;8902;-82
2021/07/21 02:22:28;;;;;;;;;19.80;19.80;;;;;27.10;59.44;100109.97;5099871;28;8799;-81
2021/07/21 02:25:26;;;;;;;;;20.40;19.60;;;;;27.08;58.92;100101.13;5100473;28;8895;-80
2021/07/21 02:28:21;;;;;;;;;17.20;17.00;;;;;27.02;58.36;100090.78;5113299;28;8834;-81
2021/07/21 02:31:29;;;;;;;;;19.80;19.80;;;;;26.98;60.13;100081.56;5113242;28;8835;-81
2021/07/21 02:34:25;;;;;;;;;27.00;27.00;;;;;26.77;58.92;100081.09;5099401;28;8942;-79
2021/07/21 02:37:21;;;;;;;;;28.40;25.40;;;;;26.80;59.77;100077.31;5113249;28;8811;-79
2021/07/21 02:40:18;;;;;;;;;27.00;26.20;;;;;26.87;59.93;100073.44;5112382;28;9672;-79
2021/07/21 02:43:15;;;;;;;;;21.00;20.20;;;;;26.86;60.42;100069.81;5112466;28;8888;-79
2021/07/21 02:46:11;;;;;;;;;22.80;22.60;;;;;26.55;60.75;100057.53;5099521;28;8850;-79
2021/07/21 02:49:06;;;;;;;;;29.40;26.80;;;;;26.96;59.97;100072.75;5099578;28;9619;-80
2021/07/21 02:52:18;;;;;;;;;41.25;35.50;;;;;27.01;59.45;100069.34;5092908;28;8816;-79
2021/07/21 02:55:22;;;;;;;;;44.00;37.75;;;;;26.91;60.32;100079.78;5079401;28;8848;-79
2021/07/21 02:58:39;;;;;;;;;52.25;43.00;;;;;26.79;59.66;100087.09;5092583;28;8824;-79
2021/07/21 03:01:39;;;;;;;;;64.25;53.25;;;;;26.84;60.47;100095.03;5092928;28;8828;-81
2021/07/21 03:04:38;;;;;;;;;75.00;64.25;;;;;26.83;59.78;100103.97;5092441;28;8823;-80
2021/07/21 03:07:37;;;;;;;;;73.33;66.67;;;;;27.04;59.60;100128.03;5092023;28;9604;-80
2021/07/21 03:10:34;;;;;;;;;69.00;55.75;;;;;26.75;59.73;100137.44;5094274;28;9380;-79
2021/07/21 03:13:49;;;;;;;;;27.20;27.20;;;;;26.51;60.38;100164.56;5112276;28;8844;-81
2021/07/21 03:16:48;;;;;;;;;52.25;40.50;;;;;26.83;60.08;100172.84;5098976;28;8964;-80
2021/07/21 03:19:50;;;;;;;;;40.00;34.50;;;;;26.93;60.87;100176.59;5112238;28;8811;-81
2021/07/21 03:22:48;;;;;;;;;28.40;27.40;;;;;26.94;61.19;100171.72;5113552;28;8850;-83
2021/07/21 03:25:45;;;;;;;;;25.40;24.60;;;;;26.86;62.40;100168.31;5112148;28;9603;-81
2021/07/21 03:28:41;;;;;;;;;37.25;33.25;;;;;26.90;62.18;100171.81;5113147;28;8818;-79
2021/07/21 03:31:38;;;;;;;;;29.80;29.00;;;;;27.10;61.60;100183.75;5099021;28;9594;-84
2021/07/21 03:34:36;;;;;;;;;30.40;27.40;;;;;26.81;62.20;100189.53;5112353;28;8837;-81
2021/07/21 03:37:34;;;;;;;;;22.60;21.40;;;;;26.59;62.66;100192.25;5112094;28;8887;-82
2021/07/21 03:40:31;;;;;;;;;47.75;39.25;;;;;26.71;62.84;100184.22;5112624;28;8807;-84
2021/07/21 03:43:28;;;;;;;;;56.50;44.00;;;;;26.60;63.66;100181.69;5112584;28;8977;-80
2021/07/21 03:46:25;;;;;;;;;42.75;36.00;;;;;26.74;62.93;100175.56;5113066;28;8822;-84
2021/07/21 03:49:21;;;;;;;;;44.00;34.00;;;;;26.97;62.75;100182.94;5117125;28;8838;-81
2021/07/21 03:52:18;;;;;;;;;36.00;31.75;;;;;26.89;62.43;100179.53;5116337;28;8830;-83
2021/07/21 03:55:15;;;;;;;;;17.40;16.40;;;;;26.72;62.20;100192.25;5096609;28;8866;-83
2021/07/21 03:58:12;;;;;;;;;17.20;16.60;;;;;26.67;62.47;100204.16;5095326;28;8828;-80
2021/07/21 04:01:08;;;;;;;;;20.40;19.60;;;;;26.55;63.89;100207.81;5095320;28;8963;-82
2021/07/21 04:04:05;;;;;;;;;17.20;17.20;;;;;26.36;65.65;100235.06;5094682;28;9565;-79
2021/07/21 04:07:02;;;;;;;;;10.20;10.20;;;;;26.10;67.30;100256.06;5096732;28;8831;-79
2021/07/21 04:09:59;;;;;;;;;18.40;17.60;;;;;26.03;68.24;100308.88;5115090;28;8825;-79
2021/07/21 04:12:57;;;;;;;;;22.75;22.50;;;;;25.72;70.47;100373.63;5116012;28;8848;-81
2021/07/21 04:15:55;;;;;;;;;45.50;37.25;;;;;25.64;71.70;100406.16;5102455;28;8829;-82
2021/07/21 04:18:51;;;;;;;;;25.25;25.25;;;;;25.57;72.17;100408.34;5115854;28;8936;-84
2021/07/21 04:21:51;;;;;;;;;22.50;22.00;;;;;25.17;74.58;100383.00;5105487;28;8859;-78
2021/07/21 04:24:48;;;;;;;;;19.25;18.50;;;;;25.20;73.99;100348.13;5114252;28;8880;-81
2021/07/21 04:27:44;;;;;;;;;18.25;18.25;;;;;25.01;74.77;100341.28;5116484;28;8859;-78
2021/07/21 04:30:41;;;;;;;;;18.75;18.75;;;;;25.01;74.59;100323.50;5101507;28;8970;-82
2021/07/21 04:33:37;;;;;;;;;14.80;14.80;;;;;25.12;74.37;100313.56;5115605;28;8865;-83
2021/07/21 04:36:38;;;;;;;;;21.75;20.75;;;;;25.26;74.03;100312.44;5115243;28;8831;-80
2021/07/21 04:39:37;;;;;;;;;52.75;41.75;;;;;24.65;76.55;100293.19;5116327;28;9575;-78
2021/07/21 04:42:34;;;;;;;;;27.75;26.75;;;;;24.47;78.22;100285.09;5101487;28;8847;-77
2021/07/21 04:45:03;;;;;;;;;22.25;20.50;;;;;24.60;77.48;100290.84;5116344;28;8825;-78
2021/07/21 04:48:00;;;;;;;;;18.50;18.25;;;;;24.43;78.12;100277.91;5114899;28;8841;-78
2021/07/21 04:50:56;;;;;;;;;17.50;17.50;;;;;24.68;78.25;100289.47;5101502;28;8829;-79
2021/07/21 04:54:00;;;;;;;;;13.80;13.80;;;;;24.56;77.79;100296.59;5114719;28;8825;-78
2021/07/21 04:56:56;;;;;;;;;19.75;19.50;;;;;24.76;77.39;100278.78;5114801;28;8825;-78
2021/07/21 04:59:38;;;;;;;;;15.00;15.00;;;;;24.64;78.78;100275.44;5115473;28;8857;-79
2021/07/21 05:02:34;;;;;;;;;15.50;15.50;;;;;24.27;80.57;100258.81;5082242;28;8850;-78
2021/07/21 05:05:30;;;;;;;;;13.40;13.40;;;;;24.58;79.54;100270.72;5100660;28;8848;-78
2021/07/21 05:08:26;;;;;;;;;11.80;11.80;;;;;24.72;78.97;100273.25;5114634;28;8821;-78
2021/07/21 05:11:21;;;;;;;;;13.00;12.00;;;;;24.68;79.46;100284.59;5101273;28;8910;-81
2021/07/21 05:14:17;;;;;;;;;12.40;12.40;;;;;24.80;78.86;100293.66;5100454;28;8856;-78
2021/07/21 05:17:13;;;;;;;;;31.25;29.75;;;;;24.80;79.41;100288.00;5114451;28;8887;-81
2021/07/21 05:20:09;;;;;;;;;33.75;32.00;;;;;25.04;77.72;100312.13;5100992;28;8845;-79
2021/07/21 05:23:05;;;;;;;;;36.75;31.25;;;;;24.74;78.71;100310.34;5095946;28;8850;-79
2021/07/21 05:26:02;;;;;;;;;40.75;35.25;;;;;24.71;79.16;100308.41;5098918;28;8823;-79
2021/07/21 05:28:58;;;;;;;;;45.75;38.00;;;;;24.86;79.69;100303.22;5101974;27;8817;-81
2021/07/21 05:31:53;;;;;;;;;21.50;18.50;;;;;24.52;78.67;100295.88;5124694;27;8889;-77
2021/07/21 05:34:49;;;;;;;;;26.00;25.50;;;;;24.92;77.91;100282.47;5093422;28;8850;-78
2021/07/21 05:37:45;;;;;;;;;16.20;16.20;;;;;24.91;76.57;100289.34;5109799;28;8814;-78
2021/07/21 05:40:40;;;;;;;;;14.40;14.40;;;;;24.88;75.71;100269.66;5113890;28;8979;-79
2021/07/21 05:43:36;;;;;;;;;12.20;12.20;;;;;25.24;75.71;100272.47;5113759;28;8813;-78
2021/07/21 05:46:32;;;;;;;;;10.00;10.00;;;;;25.42;74.26;100274.84;5107506;27;8877;-82
2021/07/21 05:49:27;;;;;;;;;11.40;11.40;;;;;25.57;73.54;100275.28;5100242;28;8857;-79
2021/07/21 05:52:23;;;;;;;;;9.00;9.00;;;;;25.58;71.66;100277.66;5114634;28;8823;-79
2021/07/21 05:55:19;;;;;;;;;9.20;9.20;;;;;25.56;71.96;100282.19;5114035;28;9599;-80
2021/07/21 05:58:18;;;;;;;;;10.20;10.20;;;;;25.61;70.24;100309.94;5096390;28;8798;-82
2021/07/21 06:01:17;;;;;;;;;7.80;7.80;;;;;24.95;73.39;100345.84;5099402;28;8864;-78
2021/07/21 06:04:12;;;;;;;;;11.00;11.00;;;;;25.01;72.16;100340.47;5100107;28;8817;-79
2021/07/21 06:07:08;;;;;;;;;12.80;12.60;;;;;24.79;72.53;100320.34;5115057;28;8840;-82
2021/07/21 06:10:04;;;;;;;;;13.20;11.60;;;;;24.92;72.81;100276.81;5093809;28;8978;-82
2021/07/21 06:13:00;;;;;;;;;10.60;9.40;;;;;25.15;71.55;100277.91;5080080;28;8819;-82
2021/07/21 06:16:03;;;;;;;;;12.60;12.60;;;;;24.91;71.34;100265.94;5080232;28;8828;-82
2021/07/21 06:18:49;;;;;;;;;10.80;10.80;;;;;25.19;71.69;100264.50;5106133;28;8916;-82
2021/07/21 06:21:53;;;;;;;;;9.60;9.60;;;;;25.14;71.58;100270.66;5098757;28;8881;-84
2021/07/21 06:24:49;;;;;;;;;11.60;11.60;;;;;25.20;71.45;100254.75;5111129;28;8819;-83
2021/07/21 06:28:04;;;;;;;;;11.00;11.00;;;;;25.08;72.20;100261.16;5115785;28;9702;-82
2021/07/21 06:31:02;;;;;;;;;12.00;12.00;;;;;24.91;72.92;100243.31;5103918;27;8993;-80
2021/07/21 06:33:59;;;;;;;;;11.60;11.40;;;;;24.96;73.06;100220.94;5135800;27;8830;-82
2021/07/21 06:36:27;;;;;;;;;9.80;9.80;;;;;25.02;72.56;100234.56;5117647;27;8883;-83
2021/07/21 06:39:22;;;;;;;;;13.20;13.20;;;;;25.26;71.63;100229.56;5118209;27;8839;-84
2021/07/21 06:41:51;;;;;;;;;13.80;13.80;;;;;25.49;71.87;100235.03;5095484;28;8894;-85
2021/07/21 06:44:47;;;;;;;;;13.40;13.40;;;;;25.25;72.06;100233.66;5105592;28;8938;-84
2021/07/21 06:47:14;;;;;;;;;12.80;12.80;;;;;25.27;71.89;100234.78;5103773;28;8841;-83
2021/07/21 06:49:43;;;;;;;;;16.60;16.40;;;;;25.43;71.58;100245.28;5125542;28;8865;-81
2021/07/21 06:52:11;;;;;;;;;14.20;13.20;;;;;25.69;71.49;100249.88;5107860;28;8831;-83
2021/07/21 06:54:39;;;;;;;;;11.80;11.80;;;;;26.05;70.13;100244.03;5123157;28;8889;-80
2021/07/21 06:57:16;;;;;;;;;15.00;15.00;;;;;26.33;69.36;100253.78;5098249;28;8875;-78
2021/07/21 06:59:59;;;;;;;;;12.60;12.60;;;;;26.40;68.40;100263.34;5113979;28;8831;-78
2021/07/21 07:02:26;;;;;;;;;13.20;13.20;;;;;26.11;68.88;100260.50;5114091;28;8831;-79
2021/07/21 07:04:55;;;;;;;;;12.60;12.60;;;;;26.51;68.98;100273.09;5114113;28;8853;-82
2021/07/21 07:07:32;;;;;;;;;12.00;12.00;;;;;26.92;68.11;100277.16;5098525;28;8819;-85
2021/07/21 07:10:02;;;;;;;;;13.80;13.80;;;;;26.20;68.20;100263.47;5116220;28;8830;-78
2021/07/21 07:12:34;;;;;;;;;12.60;12.60;;;;;26.53;68.57;100264.97;5080676;28;8900;-81
2021/07/21 07:15:23;;;;;;;;;11.40;11.40;;;;;26.47;67.49;100263.13;5113973;28;8845;-83
2021/07/21 07:17:51;;;;;;;;;12.20;12.20;;;;;26.31;68.52;100264.78;5113596;28;8854;-78
2021/07/21 07:20:51;;;;;;;;;12.60;12.60;;;;;26.38;67.46;100254.44;5098991;28;8827;-81
2021/07/21 07:23:49;;;;;;;;;14.60;14.60;;;;;26.40;68.34;100246.34;5095218;28;8857;-83
2021/07/21 07:26:46;;;;;;;;;13.00;13.00;;;;;26.42;68.27;100241.00;5104478;28;8835;-79
2021/07/21 07:29:42;;;;;;;;;12.00;12.00;;;;;26.24;68.08;100221.66;5097541;28;8825;-81
2021/07/21 07:32:09;;;;;;;;;11.40;11.40;;;;;26.47;67.89;100237.63;5098801;28;8829;-80
2021/07/21 07:35:05;;;;;;;;;14.20;14.20;;;;;26.28;68.66;100245.00;5096941;28;8831;-81
2021/07/21 07:37:47;;;;;;;;;11.80;11.80;;;;;26.60;67.72;100236.38;5107648;27;8929;-80
2021/07/21 07:40:43;;;;;;;;;14.60;14.60;;;;;26.60;66.77;100233.53;5094677;28;8827;-78
2021/07/21 07:43:11;;;;;;;;;11.20;11.20;;;;;26.83;65.85;100235.25;5109875;28;8834;-81
2021/07/21 07:46:07;;;;;;;;;11.00;11.00;;;;;26.85;65.58;100244.13;5108814;28;8829;-78
2021/07/21 07:49:04;;;;;;;;;9.60;8.60;;;;;26.64;64.58;100233.44;5108912;28;8872;-79
2021/07/21 07:52:00;;;;;;;;;12.20;12.20;;;;;27.18;64.55;100241.06;5095736;28;8847;-79
2021/07/21 07:54:56;;;;;;;;;11.20;11.20;;;;;27.02;62.96;100224.13;5095646;28;8878;-78
2021/07/21 07:57:32;;;;;;;;;9.60;9.60;;;;;27.10;63.26;100231.19;5083467;28;8833;-80
2021/07/21 08:00:29;;;;;;;;;10.00;10.00;;;;;26.96;62.45;100223.13;5093784;28;8878;-80
2021/07/21 08:03:24;;;;;;;;;9.00;9.00;;;;;27.01;60.67;100231.06;5098478;28;8823;-79
2021/07/21 08:06:21;;;;;;;;;7.40;7.40;;;;;27.26;61.21;100216.06;5096256;28;9589;-79
2021/07/21 08:09:18;;;;;;;;;8.20;8.20;;;;;27.39;61.01;100197.75;5104900;28;9603;-78
2021/07/21 08:12:14;;;;;;;;;7.00;7.00;;;;;27.29;61.21;100204.59;5112737;28;8854;-82
2021/07/21 08:15:15;;;;;;;;;11.60;11.60;;;;;27.53;61.23;100210.69;5090569;28;8872;-81
2021/07/21 08:18:12;;;;;;;;;7.00;7.00;;;;;27.89;59.94;100224.41;5113495;28;8871;-80
2021/07/21 08:20:42;;;;;;;;;8.80;8.80;;;;;27.78;60.52;100221.19;5100352;28;9667;-78
2021/07/21 08:23:40;;;;;;;;;7.00;7.00;;;;;27.65;59.07;100209.81;5119289;28;9561;-79
2021/07/21 08:26:35;;;;;;;;;6.80;6.80;;;;;28.06;58.83;100210.00;5108573;28;8847;-78
2021/07/21 08:29:07;;;;;;;;;7.40;7.40;;;;;28.47;57.38;100211.75;5079235;28;8839;-79
2021/07/21 08:31:37;;;;;;;;;11.40;11.40;;;;;28.74;56.81;100219.59;5079157;28;8923;-79
2021/07/21 08:34:33;;;;;;;;;6.80;6.80;;;;;27.98;57.28;100210.28;5085794;28;9013;-79
2021/07/21 08:37:02;;;;;;;;;9.20;9.20;;;;;28.48;58.02;100204.78;5111278;28;8876;-80
2021/07/21 08:39:58;;;;;;;;;8.80;8.80;;;;;28.54;57.13;100200.09;5097480;28;8870;-78
2021/07/21 08:42:41;;;;;;;;;12.80;12.80;;;;;29.07;57.49;100212.19;5115864;28;8956;-78
2021/07/21 08:45:09;;;;;;;;;9.00;9.00;;;;;29.18;55.12;100208.88;5109328;28;8837;-78
2021/07/21 08:47:37;;;;;;;;;9.00;9.00;;;;;29.33;54.96;100204.16;5117014;28;8811;-79
2021/07/21 08:50:07;;;;;;;;;10.00;10.00;;;;;29.21;55.96;100207.91;5116507;28;8827;-78
2021/07/21 08:52:38;;;;;;;;;9.20;9.20;;;;;29.19;54.70;100204.75;5098587;28;8827;-80
2021/07/21 08:55:11;;;;;;;;;11.40;11.40;;;;;29.44;53.87;100191.50;5098618;28;8913;-79
2021/07/21 08:58:08;;;;;;;;;9.00;9.00;;;;;29.75;54.00;100199.94;5115313;28;8947;-77
2021/07/21 09:00:54;;;;;;;;;9.40;9.40;;;;;29.56;54.42;100188.53;5116470;28;8888;-80
2021/07/21 09:03:24;;;;;;;;;11.00;11.00;;;;;29.61;54.38;100187.13;5096970;28;8831;-78
2021/07/21 09:05:53;;;;;;;;;6.60;6.60;;;;;29.33;54.51;100181.38;5095298;28;8859;-78
2021/07/21 09:08:21;;;;;;;;;9.00;9.00;;;;;30.02;53.29;100184.88;5095379;28;8843;-79
2021/07/21 09:10:49;;;;;;;;;11.80;11.80;;;;;29.98;53.38;100187.91;5095775;28;8928;-79
2021/07/21 09:13:17;;;;;;;;;8.00;8.00;;;;;30.20;52.77;100189.78;5107043;28;8847;-77
2021/07/21 09:16:13;;;;;;;;;10.00;10.00;;;;;29.90;52.76;100196.00;5114813;28;8949;-78
2021/07/21 09:19:11;;;;;;;;;12.80;12.80;;;;;29.83;54.22;100202.03;5114295;28;9574;-79
2021/07/21 09:22:23;;;;;;;;;10.80;10.80;;;;;29.77;55.40;100214.53;5097855;28;8833;-79
2021/07/21 09:25:13;;;;;;;;;10.40;10.40;;;;;29.08;54.38;100210.91;5085992;28;8875;-78
2021/07/21 09:27:58;;;;;;;;;12.00;12.00;;;;;29.05;56.59;100206.13;5093354;28;8891;-79
2021/07/21 09:30:36;;;;;;;;;13.40;13.40;;;;;29.10;58.15;100210.44;5108829;28;8811;-79
2021/07/21 09:33:14;;;;;;;;;11.40;11.40;;;;;28.86;60.59;100215.06;5117918;28;8831;-79
2021/07/21 09:36:00;;;;;;;;;16.40;16.40;;;;;28.52;63.18;100211.13;5100160;28;8831;-78
2021/07/21 09:39:00;;;;;;;;;14.00;14.00;;;;;27.92;66.06;100211.34;5113879;28;8822;-75
2021/07/21 09:41:27;;;;;;;;;15.40;15.40;;;;;27.92;67.21;100217.03;5114757;28;8855;-80
2021/07/21 09:44:00;;;;;;;;;13.80;13.80;;;;;28.10;69.91;100207.84;5096254;28;8882;-78
2021/07/21 09:46:28;;;;;;;;;14.40;14.40;;;;;28.25;68.28;100214.56;5095211;28;8851;-80
2021/07/21 09:49:04;;;;;;;;;14.80;14.80;;;;;28.38;66.73;100215.31;5097811;28;8838;-78
2021/07/21 09:51:47;;;;;;;;;16.40;16.40;;;;;28.59;67.55;100210.84;5105740;28;8834;-80
2021/07/21 09:54:19;;;;;;;;;13.60;13.60;;;;;28.79;66.17;100210.47;5114618;28;8834;-79
2021/07/21 09:56:52;;;;;;;;;16.60;16.60;;;;;28.67;68.27;100200.75;5093551;28;8841;-78
2021/07/21 09:59:34;;;;;;;;;13.80;13.80;;;;;28.65;70.65;100202.50;5107926;28;8861;-77
2021/07/21 10:02:16;;;;;;;;;17.40;17.40;;;;;28.77;69.13;100205.25;5097808;28;9621;-78
2021/07/21 10:05:05;;;;;;;;;17.00;17.00;;;;;28.71;68.75;100209.16;5115761;28;8835;-79
2021/07/21 10:07:49;;;;;;;;;18.80;18.80;;;;;28.55;67.69;100203.72;5114751;28;8827;-78
2021/07/21 10:10:22;;;;;;;;;15.60;15.60;;;;;28.84;66.95;100203.38;5105836;28;8950;-79
2021/07/21 10:12:58;;;;;;;;;16.40;16.40;;;;;28.86;67.78;100195.94;5107370;28;8831;-78
2021/07/21 10:15:26;;;;;;;;;18.40;18.40;;;;;28.98;66.15;100195.03;5114761;28;8900;-78
2021/07/21 10:18:11;;;;;;;;;18.00;18.00;;;;;28.91;67.00;100188.84;5115947;28;8818;-78
2021/07/21 10:21:06;;;;;;;;;16.20;16.20;;;;;29.11;67.38;100191.28;5114508;28;8845;-79
2021/07/21 10:24:05;;;;;;;;;15.20;15.20;;;;;29.03;67.10;100197.28;5114127;28;8834;-78
2021/07/21 10:27:04;;;;;;;;;16.00;16.00;;;;;29.32;65.26;100187.53;5113450;28;8942;-79
2021/07/21 10:29:33;;;;;;;;;16.20;16.20;;;;;29.47;69.26;100191.38;5114223;28;8837;-77
2021/07/21 10:32:33;;;;;;;;;17.20;17.20;;;;;29.57;64.34;100189.34;5113514;28;8854;-78
2021/07/21 10:35:10;;;;;;;;;18.20;18.20;;;;;29.68;60.54;100183.97;5097655;28;8835;-79
2021/07/21 10:37:39;;;;;;;;;18.80;18.80;;;;;29.92;61.93;100181.25;5114752;28;8847;-78
2021/07/21 10:40:08;;;;;;;;;16.80;16.80;;;;;29.90;59.15;100186.63;5114709;28;8938;-78
2021/07/21 10:42:36;;;;;;;;;17.00;17.00;;;;;30.37;59.04;100173.91;5113339;28;8864;-78
2021/07/21 10:45:23;;;;;;;;;19.20;19.20;;;;;30.62;60.23;100176.34;5096513;28;8815;-78
2021/07/21 10:47:57;;;;;;;;;32.60;30.40;;;;;30.24;59.98;100174.09;5110574;28;8849;-77
2021/07/21 10:54:12;;;;;;;;;47.60;39.40;;;;;30.26;58.40;100174.41;5112950;28;8833;-79
2021/07/21 11:00:44;;;;;;;;;45.40;38.00;;;;;30.77;58.35;100153.66;5092063;28;8852;-77
2021/07/21 11:03:27;;;;;;;;;59.50;49.25;;;;;31.12;56.84;100161.69;5093093;28;8847;-77
2021/07/21 11:06:47;;;;;;;;;43.40;36.20;;;;;31.09;55.45;100154.09;5092009;28;8832;-78
2021/07/21 11:09:26;;;;;;;;;56.25;45.75;;;;;31.30;57.85;100160.81;5093121;28;8859;-77
2021/07/21 11:12:09;;;;;;;;;65.25;55.75;;;;;31.71;55.19;100168.41;5107484;28;8889;-78
2021/07/21 11:14:38;;;;;;;;;46.60;39.60;;;;;31.60;53.06;100151.06;5104230;28;8874;-77
2021/07/21 11:17:33;;;;;;;;;39.40;34.60;;;;;31.38;53.25;100154.25;5111890;28;8829;-78
2021/07/21 11:20:58;;;;;;;;;32.20;30.20;;;;;31.60;54.01;100156.75;5094413;28;8853;-77
2021/07/21 11:23:52;;;;;;;;;30.00;29.20;;;;;31.80;52.99;100159.78;5083095;28;8861;-77
2021/07/21 11:26:53;;;;;;;;;37.80;33.80;;;;;32.44;52.28;100148.97;5095269;28;8869;-77
2021/07/21 11:29:24;;;;;;;;;35.20;32.20;;;;;31.91;50.23;100156.34;5080758;28;8850;-78
2021/07/21 11:31:52;;;;;;;;;39.60;32.20;;;;;32.06;52.86;100150.66;5113166;28;8895;-78
2021/07/21 11:34:38;;;;;;;;;32.60;30.20;;;;;32.49;48.64;100148.25;5113230;28;8948;-77
2021/07/21 11:37:35;;;;;;;;;34.20;31.40;;;;;32.44;50.90;100152.63;5112198;28;8831;-78
2021/07/21 11:40:21;;;;;;;;;35.60;31.60;;;;;32.77;49.07;100152.34;5113323;28;8917;-78
2021/07/21 11:42:49;;;;;;;;;42.20;34.40;;;;;32.85;49.76;100152.75;5113301;28;8853;-78
2021/07/21 11:45:20;;;;;;;;;35.20;31.60;;;;;32.57;48.89;100146.56;5090794;28;8838;-78
2021/07/21 11:48:00;;;;;;;;;43.00;34.80;;;;;33.00;48.97;100152.69;5113625;28;8825;-78
2021/07/21 11:50:32;;;;;;;;;45.00;38.20;;;;;33.38;48.33;100155.31;5087171;28;8832;-78
2021/07/21 11:53:06;;;;;;;;;47.60;39.00;;;;;33.27;48.75;100149.41;5113510;28;8834;-79
2021/07/21 11:55:37;;;;;;;;;42.20;37.00;;;;;33.44;48.98;100149.66;5112823;28;9554;-78
2021/07/21 11:58:13;;;;;;;;;42.60;35.60;;;;;33.70;47.95;100147.63;5113116;28;8810;-78
2021/07/21 12:00:51;;;;;;;;;42.80;36.80;;;;;32.97;48.88;100145.88;5095837;28;8849;-77
2021/07/21 12:03:21;;;;;;;;;45.40;38.00;;;;;33.08;50.72;100137.47;5099675;28;8909;-77
2021/07/21 12:05:55;;;;;;;;;39.20;35.20;;;;;33.15;49.68;100133.38;5076651;28;8863;-79
2021/07/21 12:08:50;;;;;;;;;44.40;37.20;;;;;33.55;50.16;100126.84;5100890;28;8843;-79
2021/07/21 12:11:19;;;;;;;;;41.80;36.40;;;;;33.32;47.32;100131.50;5099990;28;8830;-78
2021/07/21 12:14:22;;;;;;;;;46.00;38.80;;;;;33.10;50.25;100125.50;5099334;28;8847;-77
2021/07/21 12:17:19;;;;;;;;;39.40;34.80;;;;;31.74;51.92;100120.88;5088662;28;8838;-78
2021/07/21 12:19:54;;;;;;;;;48.80;41.40;;;;;32.34;52.40;100120.44;5119593;28;8929;-78
2021/07/21 12:22:49;;;;;;;;;47.80;39.40;;;;;32.69;51.24;100125.44;5109889;27;9661;-77
2021/07/21 12:25:24;;;;;;;;;52.40;42.00;;;;;32.98;52.29;100123.78;5096653;28;8924;-78
2021/07/21 12:27:52;;;;;;;;;48.60;40.00;;;;;33.50;49.65;100130.44;5115609;28;8823;-78
2021/07/21 12:30:38;;;;;;;;;47.60;38.60;;;;;33.08;50.35;100130.94;5109755;28;8887;-75
2021/07/21 12:33:07;;;;;;;;;43.80;38.20;;;;;31.74;52.48;100130.25;5101402;28;8836;-76
2021/07/21 12:35:39;;;;;;;;;48.40;38.60;;;;;32.66;51.89;100129.25;5114515;28;8841;-76
2021/07/21 12:38:10;;;;;;;;;40.80;35.80;;;;;32.74;50.40;100126.78;5116338;28;8825;-77
2021/07/21 12:40:42;;;;;;;;;46.80;38.00;;;;;32.95;50.94;100124.75;5101511;28;8940;-78
2021/07/21 12:43:38;;;;;;;;;44.00;37.20;;;;;32.92;51.42;100121.63;5098814;28;8841;-79
2021/07/21 12:46:17;;;;;;;;;49.00;40.80;;;;;32.77;50.82;100117.22;5084217;28;8806;-77
2021/07/21 12:48:46;;;;;;;;;44.40;38.40;;;;;32.95;50.39;100121.91;5097908;28;8851;-78
2021/07/21 12:51:15;;;;;;;;;44.60;37.60;;;;;32.97;48.36;100116.47;5115119;28;8838;-79
2021/07/21 12:54:13;;;;;;;;;38.40;33.60;;;;;32.79;52.13;100111.75;5098364;28;8993;-79
2021/07/21 12:56:44;;;;;;;;;40.80;36.00;;;;;32.78;52.00;100113.06;5098357;28;8860;-79
2021/07/21 12:59:16;;;;;;;;;36.60;32.20;;;;;33.19;52.31;100119.63;5110782;28;8895;-77
2021/07/21 13:01:47;;;;;;;;;25.40;25.40;;;;;33.00;51.05;100110.53;5098940;28;8839;-77
2021/07/21 13:04:31;;;;;;;;;42.20;34.80;;;;;33.01;51.34;100102.72;5115771;28;8843;-78
2021/07/21 13:07:05;;;;;;;;;41.20;35.00;;;;;33.33;51.72;100098.69;5116498;28;8843;-80
2021/07/21 13:09:38;;;;;;;;;37.80;32.60;;;;;33.41;50.17;100099.06;5095165;28;8850;-78
2021/07/21 13:12:16;;;;;;;;;36.20;32.60;;;;;32.98;51.01;100095.94;5091846;28;8875;-80